Time;durP1;ratioP1;P1;durP2;ratioP2;P2;SDS_P1;SDS_P2;PMS_P1;PMS_P2;Temp;Humidity;BMP_temperature;BMP_pressure;BME280_temperature;BME280_humidity;BME280_pressure;Samples;Min_cycle;Max_cycle;Signal;HPM_P1;HPM_P2
2024/02/15 00:00:37;;;;;;;8.15;4.95;;;11.40;99.90;;;;;;5074441;28;20033;-88
2024/02/15 00:03:06;;;;;;;8.93;5.07;;;11.40;99.90;;;;;;5086478;28;20492;-88
2024/02/15 00:05:34;;;;;;;6.63;4.50;;;11.40;99.90;;;;;;5074892;28;20104;-87
2024/02/15 00:08:01;;;;;;;5.85;4.28;;;11.40;99.90;;;;;;5091974;28;20027;-87
2024/02/15 00:10:26;;;;;;;9.13;4.28;;;11.40;99.90;;;;;;5091935;28;20438;-86
2024/02/15 00:12:52;;;;;;;7.50;4.78;;;11.40;99.90;;;;;;5073438;28;20036;-87
2024/02/15 00:15:19;;;;;;;8.48;4.10;;;11.30;99.90;;;;;;5073151;28;20161;-86
2024/02/15 00:17:46;;;;;;;10.10;4.25;;;11.30;99.90;;;;;;5073767;28;20085;-87
2024/02/15 00:20:12;;;;;;;7.32;4.85;;;11.30;99.90;;;;;;5073212;28;20028;-88
2024/02/15 00:22:41;;;;;;;9.15;3.95;;;11.30;99.90;;;;;;5074627;28;20033;-88
2024/02/15 00:25:08;;;;;;;6.90;4.20;;;11.30;99.90;;;;;;5073269;28;20025;-87
2024/02/15 00:27:37;;;;;;;6.25;4.25;;;11.30;99.90;;;;;;5083099;28;20054;-88
2024/02/15 00:30:07;;;;;;;6.10;3.70;;;11.30;99.90;;;;;;5092749;28;20476;-85
2024/02/15 00:32:36;;;;;;;10.40;4.20;;;11.30;99.90;;;;;;5078391;28;20039;-87
2024/02/15 00:35:06;;;;;;;7.40;4.40;;;11.30;99.90;;;;;;5089985;28;20052;-87
2024/02/15 00:37:31;;;;;;;8.40;4.65;;;11.30;99.90;;;;;;5091303;28;20072;-87
2024/02/15 00:39:57;;;;;;;9.45;4.35;;;11.30;99.90;;;;;;5092629;28;20032;-86
2024/02/15 00:42:23;;;;;;;7.35;4.22;;;11.30;99.90;;;;;;5089427;28;20040;-86
2024/02/15 00:44:49;;;;;;;6.88;4.60;;;11.30;99.90;;;;;;5092451;28;20051;-86
2024/02/15 00:47:18;;;;;;;10.05;4.95;;;11.30;99.90;;;;;;5092932;28;20481;-86
2024/02/15 00:49:44;;;;;;;6.43;4.57;;;11.30;99.90;;;;;;5093821;28;20020;-86
2024/02/15 00:52:10;;;;;;;4.70;3.83;;;11.30;99.90;;;;;;5092118;28;20027;-88
2024/02/15 00:54:36;;;;;;;11.65;5.13;;;11.30;99.90;;;;;;5092403;28;20391;-88
2024/02/15 00:57:01;;;;;;;11.07;5.90;;;11.30;99.90;;;;;;5099182;28;20043;-85
2024/02/15 00:59:27;;;;;;;11.27;6.35;;;11.30;99.90;;;;;;5103917;28;20051;-87
2024/02/15 01:01:53;;;;;;;6.25;4.30;;;11.20;99.90;;;;;;5093961;28;20130;-86
2024/02/15 01:04:19;;;;;;;11.95;5.75;;;11.20;99.90;;;;;;5095462;28;20113;-85
2024/02/15 01:06:45;;;;;;;10.85;5.70;;;11.20;99.90;;;;;;5102791;28;20475;-85
2024/02/15 01:09:10;;;;;;;9.38;5.55;;;11.20;99.90;;;;;;5095802;28;20032;-85
2024/02/15 01:11:37;;;;;;;9.50;5.95;;;11.20;99.90;;;;;;5099063;28;20554;-84
2024/02/15 01:14:03;;;;;;;8.85;5.90;;;11.20;99.90;;;;;;5106441;28;21059;-83
2024/02/15 01:16:29;;;;;;;9.88;6.22;;;11.20;99.90;;;;;;5114342;28;20020;-85
2024/02/15 01:18:55;;;;;;;8.93;6.47;;;11.20;99.90;;;;;;5129615;27;20040;-84
2024/02/15 01:21:22;;;;;;;10.88;6.97;;;11.20;99.90;;;;;;5099353;28;20024;-85
2024/02/15 01:23:48;;;;;;;10.50;7.30;;;11.20;99.90;;;;;;5103444;28;20031;-86
2024/02/15 01:26:14;;;;;;;13.82;9.57;;;11.20;99.90;;;;;;5110675;28;20028;-84
2024/02/15 01:28:43;;;;;;;11.90;7.80;;;11.30;99.90;;;;;;5116099;28;20027;-86
2024/02/15 01:31:10;;;;;;;15.45;9.32;;;11.30;99.90;;;;;;5117495;28;20031;-83
2024/02/15 01:33:36;;;;;;;12.40;7.85;;;11.30;99.90;;;;;;5115621;28;20126;-83
2024/02/15 01:36:03;;;;;;;10.23;6.75;;;11.30;99.90;;;;;;5101413;28;20111;-84
2024/02/15 01:38:29;;;;;;;10.45;7.50;;;11.30;99.90;;;;;;5097903;28;20036;-84
2024/02/15 01:40:55;;;;;;;16.88;9.07;;;11.30;99.90;;;;;;5094805;28;20050;-83
2024/02/15 01:43:20;;;;;;;17.38;9.15;;;11.30;99.90;;;;;;5093584;28;20031;-84
2024/02/15 01:45:49;;;;;;;15.73;9.77;;;11.20;99.90;;;;;;5092990;28;20078;-85
2024/02/15 01:48:15;;;;;;;18.00;9.63;;;11.30;99.90;;;;;;5092621;28;20115;-85
2024/02/15 01:50:42;;;;;;;16.42;9.57;;;11.30;99.90;;;;;;5093436;28;20024;-85
2024/02/15 01:53:10;;;;;;;13.82;8.68;;;11.30;99.90;;;;;;5091932;28;20472;-84
2024/02/15 01:55:37;;;;;;;14.27;8.27;;;11.20;99.90;;;;;;5091411;28;20032;-85
2024/02/15 01:58:03;;;;;;;9.50;6.95;;;11.30;99.90;;;;;;5091801;28;20036;-85
2024/02/15 02:00:30;;;;;;;16.92;8.70;;;11.30;99.90;;;;;;5082827;28;20033;-86
2024/02/15 02:03:01;;;;;;;13.50;8.13;;;11.30;99.90;;;;;;5073330;28;20029;-84
2024/02/15 02:05:31;;;;;;;16.55;8.95;;;11.30;99.90;;;;;;5090859;28;20035;-85
2024/02/15 02:08:04;;;;;;;12.27;7.97;;;11.30;99.90;;;;;;5093990;28;20062;-86
2024/02/15 02:10:32;;;;;;;12.32;7.90;;;11.40;99.90;;;;;;5091136;28;20277;-85
2024/02/15 02:13:01;;;;;;;15.63;8.15;;;11.40;99.90;;;;;;5081360;28;20042;-84
2024/02/15 02:15:28;;;;;;;11.50;7.90;;;11.40;99.90;;;;;;5092157;28;20031;-85
2024/02/15 02:17:54;;;;;;;10.68;7.43;;;11.40;99.90;;;;;;5091661;28;20040;-87
2024/02/15 02:20:20;;;;;;;10.73;7.75;;;11.40;99.90;;;;;;5091996;28;20038;-84
2024/02/15 02:22:50;;;;;;;11.73;7.20;;;11.40;99.90;;;;;;5092057;28;20028;-84
2024/02/15 02:25:16;;;;;;;11.80;7.30;;;11.50;99.90;;;;;;5092063;28;20032;-84
2024/02/15 02:27:42;;;;;;;10.90;7.07;;;11.50;99.90;;;;;;5091927;28;20468;-85
2024/02/15 02:30:21;;;;;;;12.00;7.55;;;11.50;99.90;;;;;;5092423;28;20039;-88
2024/02/15 02:32:48;;;;;;;16.35;7.40;;;11.50;99.90;;;;;;5092603;28;20402;-83
2024/02/15 02:35:15;;;;;;;10.70;7.32;;;11.50;99.90;;;;;;5091037;28;20032;-85
2024/02/15 02:37:42;;;;;;;11.82;7.70;;;11.50;99.90;;;;;;5097736;28;20430;-84
2024/02/15 02:40:09;;;;;;;11.07;7.05;;;11.50;99.90;;;;;;5092914;28;20376;-86
2024/02/15 02:42:50;;;;;;;11.30;7.10;;;11.50;99.90;;;;;;5090903;28;20429;-85
2024/02/15 02:45:15;;;;;;;14.90;7.43;;;11.50;99.90;;;;;;5090620;28;20039;-85
2024/02/15 02:47:41;;;;;;;10.48;6.82;;;11.50;99.90;;;;;;5091201;28;20024;-84
2024/02/15 02:50:08;;;;;;;11.88;5.93;;;11.50;99.90;;;;;;5097107;28;20020;-85
2024/02/15 02:52:33;;;;;;;10.60;7.07;;;11.50;99.90;;;;;;5101566;28;20032;-84
2024/02/15 02:54:59;;;;;;;12.43;7.38;;;11.60;99.90;;;;;;5096284;28;20030;-85
2024/02/15 02:57:25;;;;;;;12.50;6.25;;;11.50;99.90;;;;;;5095098;28;20039;-87
2024/02/15 02:59:51;;;;;;;10.77;6.13;;;11.50;99.90;;;;;;5098537;28;20051;-85
2024/02/15 03:02:17;;;;;;;10.57;6.22;;;11.50;99.90;;;;;;5102477;28;20102;-84
2024/02/15 03:04:43;;;;;;;7.85;6.18;;;11.50;99.90;;;;;;5102518;28;20080;-85
2024/02/15 03:07:09;;;;;;;10.75;5.60;;;11.50;99.90;;;;;;5098732;28;20027;-84
2024/02/15 03:09:37;;;;;;;11.07;5.70;;;11.50;99.90;;;;;;5101221;28;20483;-84
2024/02/15 03:12:03;;;;;;;7.80;4.75;;;11.60;99.90;;;;;;5104580;28;20391;-84
2024/02/15 03:14:35;;;;;;;8.68;5.20;;;11.50;99.90;;;;;;5102159;28;20028;-85
2024/02/15 03:17:03;;;;;;;8.75;5.80;;;11.60;99.90;;;;;;5100123;28;20021;-84
2024/02/15 03:19:30;;;;;;;8.35;5.47;;;11.60;99.90;;;;;;5100393;28;20036;-85
2024/02/15 03:21:56;;;;;;;8.48;5.65;;;11.60;99.90;;;;;;5105574;28;20023;-87
2024/02/15 03:24:22;;;;;;;9.70;5.32;;;11.60;99.90;;;;;;5104994;28;20028;-84
2024/02/15 03:26:47;;;;;;;6.15;4.68;;;11.60;99.90;;;;;;5099888;28;20030;-87
2024/02/15 03:29:13;;;;;;;7.75;4.93;;;11.60;99.90;;;;;;5104945;28;20080;-85
2024/02/15 03:31:39;;;;;;;6.97;5.05;;;11.60;99.90;;;;;;5104810;28;20027;-87
2024/02/15 03:34:05;;;;;;;10.85;5.80;;;11.60;99.90;;;;;;5102806;28;20100;-84
2024/02/15 03:36:31;;;;;;;8.45;5.40;;;11.60;99.90;;;;;;5093455;28;20071;-85
2024/02/15 03:38:57;;;;;;;9.18;5.78;;;11.60;99.90;;;;;;5104414;28;20066;-86
2024/02/15 03:41:24;;;;;;;9.02;5.18;;;11.50;99.90;;;;;;5091106;28;20028;-85
2024/02/15 03:43:50;;;;;;;8.73;5.50;;;11.60;99.90;;;;;;5096623;28;20027;-86
2024/02/15 03:46:16;;;;;;;8.68;5.32;;;11.50;99.90;;;;;;5103289;28;20034;-86
2024/02/15 03:48:43;;;;;;;9.27;5.10;;;11.50;99.90;;;;;;5101529;28;20118;-86
2024/02/15 03:51:09;;;;;;;9.85;5.45;;;11.50;99.90;;;;;;5107738;28;20039;-85
2024/02/15 03:53:37;;;;;;;11.02;5.82;;;11.50;99.90;;;;;;5114631;28;20050;-85
2024/02/15 03:56:04;;;;;;;9.35;5.65;;;11.50;99.90;;;;;;5113660;28;20032;-86
2024/02/15 03:58:32;;;;;;;11.27;6.45;;;11.50;99.90;;;;;;5098708;28;20135;-87
2024/02/15 04:00:59;;;;;;;8.48;5.38;;;11.50;99.90;;;;;;5091517;28;20032;-85
2024/02/15 04:03:25;;;;;;;8.60;5.47;;;11.50;99.90;;;;;;5093959;28;20032;-86
2024/02/15 04:05:50;;;;;;;8.02;5.43;;;11.50;99.90;;;;;;5093971;28;20020;-88
2024/02/15 04:08:17;;;;;;;11.68;5.43;;;11.50;99.90;;;;;;5086984;28;20106;-88
2024/02/15 04:10:43;;;;;;;9.23;5.63;;;11.50;99.90;;;;;;5092042;28;20035;-87
2024/02/15 04:13:09;;;;;;;8.25;5.10;;;11.50;99.90;;;;;;5093366;28;20353;-88
2024/02/15 04:15:34;;;;;;;8.30;4.90;;;11.50;99.90;;;;;;5093381;28;20039;-89
2024/02/15 04:18:00;;;;;;;8.98;6.03;;;11.50;99.90;;;;;;5090784;28;20028;-87
2024/02/15 04:20:27;;;;;;;8.05;5.15;;;11.50;99.90;;;;;;5086033;28;20055;-89
2024/02/15 04:22:54;;;;;;;8.43;5.70;;;11.50;99.90;;;;;;5083128;28;20032;-88
2024/02/15 04:25:23;;;;;;;8.95;5.75;;;11.50;99.90;;;;;;5073029;28;20043;-86
2024/02/15 04:27:49;;;;;;;10.05;5.30;;;11.50;99.90;;;;;;5077892;28;20039;-88
2024/02/15 04:30:15;;;;;;;6.88;4.45;;;11.50;99.90;;;;;;5082050;28;20040;-88
2024/02/15 04:32:41;;;;;;;7.60;4.72;;;11.40;99.90;;;;;;5077888;28;20024;-87
2024/02/15 04:35:07;;;;;;;7.38;3.90;;;11.40;99.90;;;;;;5084332;28;20082;-86
2024/02/15 04:37:34;;;;;;;7.45;3.85;;;11.40;99.90;;;;;;5072731;28;20103;-87
2024/02/15 04:40:09;;;;;;;6.88;4.60;;;11.40;99.90;;;;;;5072172;28;20032;-87
2024/02/15 04:42:39;;;;;;;7.07;4.30;;;11.40;99.90;;;;;;5075545;28;20032;-88
2024/02/15 04:45:13;;;;;;;7.43;4.78;;;11.40;99.90;;;;;;5082146;28;20024;-86
2024/02/15 04:47:40;;;;;;;8.20;5.20;;;11.40;99.90;;;;;;5084224;28;20093;-87
2024/02/15 04:50:07;;;;;;;5.43;4.25;;;11.40;99.90;;;;;;5093747;28;20024;-86
2024/02/15 04:52:33;;;;;;;7.45;4.50;;;11.40;99.90;;;;;;5092111;28;20024;-86
2024/02/15 04:54:59;;;;;;;9.65;4.82;;;11.40;99.90;;;;;;5110635;28;20364;-86
2024/02/15 04:57:30;;;;;;;7.53;4.63;;;11.40;99.90;;;;;;5081033;28;20040;-84
2024/02/15 04:59:56;;;;;;;8.75;4.55;;;11.40;99.90;;;;;;5091657;28;20407;-85
2024/02/15 05:02:24;;;;;;;10.93;4.65;;;11.40;99.90;;;;;;5092724;28;20035;-85
2024/02/15 05:04:56;;;;;;;7.95;4.40;;;11.40;99.90;;;;;;5091471;28;20024;-85
2024/02/15 05:07:22;;;;;;;8.68;5.15;;;11.40;99.90;;;;;;5084445;28;20429;-86
2024/02/15 05:09:49;;;;;;;7.93;4.82;;;11.40;99.90;;;;;;5075661;28;20043;-84
2024/02/15 05:12:25;;;;;;;6.40;4.43;;;11.40;99.90;;;;;;5084102;28;20047;-85
2024/02/15 05:14:51;;;;;;;9.93;4.93;;;11.40;99.90;;;;;;5073131;28;20086;-85
2024/02/15 05:17:17;;;;;;;6.72;4.95;;;11.40;99.90;;;;;;5071360;28;20037;-86
2024/02/15 05:19:43;;;;;;;7.00;5.28;;;11.40;99.90;;;;;;5073436;28;20119;-84
2024/02/15 05:22:08;;;;;;;8.05;5.88;;;11.40;99.90;;;;;;5084643;28;20115;-84
2024/02/15 05:24:35;;;;;;;11.13;5.95;;;11.40;99.90;;;;;;5071797;28;20477;-86
2024/02/15 05:27:01;;;;;;;9.52;5.78;;;11.40;99.90;;;;;;5074723;28;20036;-85
2024/02/15 05:29:27;;;;;;;10.68;6.57;;;11.40;99.90;;;;;;5079205;28;20028;-84
2024/02/15 05:31:54;;;;;;;11.88;6.68;;;11.40;99.90;;;;;;5071282;28;20040;-85
2024/02/15 05:34:20;;;;;;;11.52;6.57;;;11.40;99.90;;;;;;5073115;28;20111;-87
2024/02/15 05:36:48;;;;;;;13.40;6.47;;;11.40;99.90;;;;;;5076671;28;20120;-86
2024/02/15 05:39:14;;;;;;;11.77;7.20;;;11.40;99.90;;;;;;5084263;28;20033;-84
2024/02/15 05:41:40;;;;;;;8.15;6.38;;;11.40;99.90;;;;;;5070961;28;20051;-85
2024/02/15 05:44:07;;;;;;;8.82;6.05;;;11.40;99.90;;;;;;5071439;28;20056;-84
2024/02/15 05:46:37;;;;;;;7.95;6.00;;;11.40;99.90;;;;;;5075881;28;20104;-87
2024/02/15 05:49:04;;;;;;;9.43;7.37;;;11.40;99.90;;;;;;5081995;28;20364;-84
2024/02/15 05:51:31;;;;;;;7.93;6.03;;;11.40;99.90;;;;;;5091777;28;20058;-84
2024/02/15 05:53:59;;;;;;;11.00;6.57;;;11.40;99.90;;;;;;5091841;28;20080;-85
2024/02/15 05:56:25;;;;;;;9.63;6.75;;;11.40;99.90;;;;;;5089698;28;20043;-85
2024/02/15 05:58:52;;;;;;;8.95;6.32;;;11.40;99.90;;;;;;5090268;28;20441;-83
2024/02/15 06:01:18;;;;;;;8.48;6.35;;;11.40;99.90;;;;;;5091271;28;20537;-84
2024/02/15 06:03:44;;;;;;;10.18;7.10;;;11.40;99.90;;;;;;5083731;28;20059;-84
2024/02/15 06:06:11;;;;;;;10.38;7.38;;;11.40;99.90;;;;;;5074475;28;20054;-86
2024/02/15 06:08:37;;;;;;;11.18;7.10;;;11.40;99.90;;;;;;5071153;28;20124;-84
2024/02/15 06:11:07;;;;;;;15.43;7.38;;;11.40;99.90;;;;;;5071325;28;20028;-84
2024/02/15 06:13:33;;;;;;;10.63;6.75;;;11.40;99.90;;;;;;5078584;28;20054;-84
2024/02/15 06:16:00;;;;;;;7.50;5.88;;;11.30;99.90;;;;;;5078298;28;20100;-84
2024/02/15 06:18:28;;;;;;;7.93;6.45;;;11.40;99.90;;;;;;5072490;28;20487;-84
2024/02/15 06:20:59;;;;;;;12.32;6.65;;;11.40;99.90;;;;;;5070151;28;20045;-84
2024/02/15 06:23:26;;;;;;;6.93;5.47;;;11.40;99.90;;;;;;5076115;28;20024;-87
2024/02/15 06:25:53;;;;;;;8.23;4.85;;;11.40;99.90;;;;;;5078426;28;20101;-84
2024/02/15 06:39:42;;;;;;;6.97;5.45;;;11.40;99.90;;;;;;5092139;28;20071;-85
2024/02/15 06:42:16;;;;;;;8.18;5.68;;;11.40;99.90;;;;;;5093047;28;20032;-88
2024/02/15 06:44:43;;;;;;;6.80;5.50;;;11.40;99.90;;;;;;5083018;28;20021;-84
2024/02/15 06:47:10;;;;;;;7.53;5.72;;;11.40;99.90;;;;;;5074665;28;20025;-85
2024/02/15 06:49:40;;;;;;;6.82;5.03;;;11.40;99.90;;;;;;5074887;28;20035;-84
2024/02/15 06:52:10;;;;;;;6.93;5.78;;;11.40;99.90;;;;;;5076197;28;20128;-85
2024/02/15 06:54:37;;;;;;;;;;;11.50;99.90;;;;;;5089854;28;20031;-85
2024/02/15 06:57:04;;;;;;;6.13;4.93;;;11.50;99.90;;;;;;5127804;27;19959;-84
2024/02/15 06:59:31;;;;;;;7.85;4.90;;;11.40;99.90;;;;;;5103825;27;20077;-85
2024/02/15 07:02:01;;;;;;;7.03;5.57;;;11.50;99.90;;;;;;5103680;28;20077;-85
2024/02/15 07:04:27;;;;;;;6.55;4.82;;;11.50;99.90;;;;;;5101096;28;20442;-85
2024/02/15 07:06:56;;;;;;;5.72;4.88;;;11.50;99.90;;;;;;5094959;28;20080;-86
2024/02/15 07:09:24;;;;;;;5.53;4.57;;;11.50;99.90;;;;;;5105694;28;20028;-84
2024/02/15 07:11:53;;;;;;;8.90;4.93;;;11.50;99.90;;;;;;5093840;28;20032;-85
2024/02/15 07:14:24;;;;;;;5.60;4.38;;;11.50;99.90;;;;;;5101524;28;20023;-86
2024/02/15 07:16:50;;;;;;;7.60;5.05;;;11.60;99.90;;;;;;5110740;28;20088;-84
2024/02/15 07:19:16;;;;;;;6.40;4.60;;;11.70;99.90;;;;;;5085376;28;20043;-85
2024/02/15 07:21:44;;;;;;;5.45;4.45;;;11.70;99.90;;;;;;5085669;28;20036;-87
2024/02/15 07:24:09;;;;;;;5.20;4.05;;;11.70;99.90;;;;;;5078901;28;20111;-88
2024/02/15 07:26:36;;;;;;;6.13;4.35;;;11.70;99.90;;;;;;5093912;28;20138;-85
2024/02/15 07:29:05;;;;;;;8.40;3.65;;;11.80;99.90;;;;;;5094624;28;20028;-85
2024/02/15 07:31:31;;;;;;;7.95;4.53;;;11.80;99.90;;;;;;5083385;28;20032;-86
2024/02/15 07:33:57;;;;;;;8.63;4.70;;;11.80;99.90;;;;;;5086546;28;20031;-86
2024/02/15 07:36:23;;;;;;;7.60;3.72;;;11.90;99.90;;;;;;5087063;28;20110;-85
2024/02/15 07:38:50;;;;;;;6.82;4.43;;;11.90;99.90;;;;;;5087390;28;20028;-85
2024/02/15 07:41:24;;;;;;;6.47;3.70;;;11.90;99.90;;;;;;5074499;28;20056;-86
2024/02/15 07:43:50;;;;;;;6.85;3.75;;;12.00;99.90;;;;;;5073375;28;20033;-87
2024/02/15 07:46:16;;;;;;;5.00;2.95;;;12.00;99.90;;;;;;5114136;27;20078;-85
2024/02/15 07:48:46;;;;;;;6.30;3.97;;;12.00;99.90;;;;;;5097337;28;20036;-87
2024/02/15 07:51:18;;;;;;;5.37;3.90;;;12.00;99.90;;;;;;5083864;28;20475;-85
2024/02/15 07:53:44;;;;;;;5.88;3.25;;;12.10;99.90;;;;;;5093297;28;20062;-85
2024/02/15 07:56:10;;;;;;;4.75;3.47;;;12.10;99.90;;;;;;5091082;28;20020;-88
2024/02/15 07:58:48;;;;;;;6.13;3.22;;;12.10;99.90;;;;;;5078318;28;20045;-86
2024/02/15 08:01:14;;;;;;;6.82;3.70;;;12.20;99.90;;;;;;5092192;28;20056;-84
2024/02/15 08:03:44;;;;;;;6.82;4.05;;;12.20;99.90;;;;;;5111017;28;20051;-84
2024/02/15 08:06:12;;;;;;;7.22;3.90;;;12.20;99.90;;;;;;5101061;28;20036;-84
2024/02/15 08:08:41;;;;;;;8.10;4.35;;;12.20;99.90;;;;;;5099648;28;20020;-86
2024/02/15 08:11:14;;;;;;;8.27;3.63;;;12.20;99.90;;;;;;5096074;28;20042;-84
2024/02/15 08:13:50;;;;;;;6.47;4.00;;;12.20;99.90;;;;;;5095858;28;20060;-84
2024/02/15 08:16:22;;;;;;;7.40;3.90;;;12.30;99.90;;;;;;5098849;28;20107;-85
2024/02/15 08:18:51;;;;;;;6.05;4.32;;;12.30;99.90;;;;;;5098564;28;20031;-85
2024/02/15 08:21:17;;;;;;;9.23;4.40;;;12.30;99.90;;;;;;5096187;28;20033;-85
2024/02/15 08:23:43;;;;;;;7.32;4.60;;;12.30;99.90;;;;;;5074560;28;20035;-86
2024/02/15 08:26:13;;;;;;;7.60;4.68;;;12.30;99.90;;;;;;5080143;28;20380;-85
2024/02/15 08:28:39;;;;;;;7.57;4.25;;;12.40;99.90;;;;;;5074243;28;20041;-85
2024/02/15 08:31:05;;;;;;;8.45;4.15;;;12.40;99.90;;;;;;5092428;28;20042;-85
2024/02/15 08:33:31;;;;;;;6.22;4.43;;;12.40;99.90;;;;;;5090514;28;20472;-85
2024/02/15 08:35:56;;;;;;;8.00;4.90;;;12.40;99.90;;;;;;5092077;28;20035;-85
2024/02/15 08:38:23;;;;;;;5.68;4.53;;;12.40;99.90;;;;;;5120334;27;20107;-84
2024/02/15 08:40:49;;;;;;;11.60;4.95;;;12.40;99.90;;;;;;5102503;28;20110;-85
2024/02/15 08:43:15;;;;;;;11.77;5.97;;;12.40;99.90;;;;;;5103081;28;20122;-85
2024/02/15 08:45:41;;;;;;;11.82;5.10;;;12.40;99.90;;;;;;5103453;28;20424;-85
2024/02/15 08:48:08;;;;;;;8.00;4.72;;;12.40;99.90;;;;;;5103357;28;20112;-87
2024/02/15 08:50:33;;;;;;;6.15;4.13;;;12.40;99.90;;;;;;5101609;28;20429;-85
2024/02/15 08:52:59;;;;;;;8.88;4.68;;;12.50;99.90;;;;;;5099072;28;20028;-84
2024/02/15 08:55:27;;;;;;;8.85;5.55;;;12.50;99.90;;;;;;5092615;28;20028;-85
2024/02/15 08:57:54;;;;;;;7.43;5.20;;;12.50;99.90;;;;;;5089238;28;20043;-85
2024/02/15 09:00:20;;;;;;;11.57;5.38;;;12.50;99.90;;;;;;5091798;28;20123;-84
2024/02/15 09:02:46;;;;;;;8.82;5.10;;;12.40;99.90;;;;;;5091768;28;20073;-85
2024/02/15 09:05:17;;;;;;;12.30;5.70;;;12.50;99.90;;;;;;5092550;28;20031;-86
2024/02/15 09:07:43;;;;;;;8.98;5.72;;;12.50;99.90;;;;;;5092568;28;20115;-87
2024/02/15 09:10:10;;;;;;;7.97;4.93;;;12.60;99.90;;;;;;5091405;28;20494;-86
2024/02/15 09:12:43;;;;;;;10.23;4.63;;;12.60;99.90;;;;;;5092118;28;20481;-85
2024/02/15 09:15:12;;;;;;;7.75;4.35;;;12.60;99.90;;;;;;5093481;28;20031;-85
2024/02/15 09:17:38;;;;;;;10.98;4.45;;;12.70;99.90;;;;;;5093438;28;20034;-86
2024/02/15 09:20:15;;;;;;;9.20;4.40;;;12.70;99.90;;;;;;5092725;28;20500;-85
2024/02/15 09:22:56;;;;;;;8.05;4.43;;;12.70;99.90;;;;;;5091830;28;20028;-85
2024/02/15 09:25:23;;;;;;;8.05;4.13;;;12.80;99.90;;;;;;5096742;28;20024;-85
2024/02/15 09:27:49;;;;;;;6.97;4.65;;;12.80;99.90;;;;;;5072198;28;20035;-84
2024/02/15 09:30:16;;;;;;;10.68;4.82;;;12.80;99.90;;;;;;5086555;28;20032;-85
2024/02/15 09:32:43;;;;;;;7.40;3.90;;;12.80;99.90;;;;;;5089105;28;20418;-87
2024/02/15 09:35:09;;;;;;;8.48;4.43;;;12.80;99.90;;;;;;5079726;28;20514;-87
2024/02/15 09:37:39;;;;;;;9.43;3.75;;;12.90;99.90;;;;;;5124080;27;20440;-86
2024/02/15 09:40:10;;;;;;;7.95;3.90;;;12.90;99.90;;;;;;5091163;28;20036;-85
2024/02/15 09:42:36;;;;;;;7.25;3.80;;;12.90;99.90;;;;;;5121182;27;20024;-85
2024/02/15 09:45:11;;;;;;;7.07;4.53;;;12.90;99.90;;;;;;5077572;28;20372;-86
2024/02/15 09:47:38;;;;;;;8.45;3.85;;;12.90;99.90;;;;;;5087077;28;20020;-85
2024/02/15 09:50:07;;;;;;;9.63;3.72;;;13.00;99.90;;;;;;5111272;27;20487;-85
2024/02/15 09:52:35;;;;;;;8.52;4.18;;;13.00;99.90;;;;;;5092127;28;20483;-85
2024/02/15 09:55:03;;;;;;;8.65;3.78;;;13.00;99.90;;;;;;5093027;28;20102;-85
2024/02/15 09:57:32;;;;;;;7.93;3.83;;;13.00;99.90;;;;;;5089721;28;20139;-81
2024/02/15 09:59:59;;;;;;;9.23;3.50;;;13.10;99.90;;;;;;5110441;27;20109;-84
2024/02/15 10:02:26;;;;;;;6.88;3.53;;;13.10;99.90;;;;;;5099128;28;20081;-80
2024/02/15 10:04:56;;;;;;;6.95;3.58;;;13.10;99.90;;;;;;5099627;28;20028;-81
2024/02/15 10:07:23;;;;;;;6.60;3.45;;;13.20;99.90;;;;;;5099403;28;20361;-80
2024/02/15 10:09:49;;;;;;;7.70;3.20;;;13.20;99.90;;;;;;5091159;28;20020;-81
2024/02/15 10:12:15;;;;;;;8.07;3.55;;;13.20;99.90;;;;;;5097857;28;20424;-80
2024/02/15 10:14:49;;;;;;;3.35;2.38;;;13.20;99.90;;;;;;5098895;28;20024;-82
2024/02/15 10:17:17;;;;;;;5.63;2.85;;;13.20;99.90;;;;;;5104265;28;20426;-81
2024/02/15 10:19:44;;;;;;;10.60;3.95;;;13.20;99.90;;;;;;5099234;28;20135;-82
2024/02/15 10:22:10;;;;;;;8.55;3.20;;;13.30;99.90;;;;;;5106278;28;20063;-81
2024/02/15 10:24:39;;;;;;;7.65;3.42;;;13.30;99.90;;;;;;5099672;28;20035;-80
2024/02/15 10:27:06;;;;;;;9.65;2.95;;;13.30;99.90;;;;;;5103819;28;20071;-83
2024/02/15 10:29:33;;;;;;;6.93;3.35;;;13.30;99.90;;;;;;5102099;28;20047;-79
2024/02/15 10:32:03;;;;;;;7.18;3.03;;;13.30;99.90;;;;;;5105280;28;20447;-82
2024/02/15 10:34:36;;;;;;;7.43;2.90;;;13.40;99.90;;;;;;5105371;28;20024;-82
2024/02/15 10:37:20;;;;;;;4.07;1.75;;;13.40;99.90;;;;;;5098930;28;20575;-80
2024/02/15 10:39:46;;;;;;;6.57;2.78;;;13.50;99.90;;;;;;5095395;28;20044;-82
2024/02/15 10:42:14;;;;;;;8.48;3.55;;;13.50;99.90;;;;;;5092191;28;20028;-79
2024/02/15 10:44:40;;;;;;;8.23;2.70;;;13.60;99.90;;;;;;5095676;28;20047;-81
2024/02/15 10:47:07;;;;;;;13.38;3.63;;;13.70;99.90;;;;;;5095214;28;20039;-81
2024/02/15 10:49:35;;;;;;;6.85;3.25;;;13.70;99.90;;;;;;5095440;28;20035;-80
2024/02/15 10:52:05;;;;;;;6.90;2.50;;;13.70;99.90;;;;;;5095401;28;20020;-79
2024/02/15 10:54:41;;;;;;;6.47;2.50;;;13.80;99.90;;;;;;5094185;28;20052;-82
2024/02/15 10:57:10;;;;;;;5.78;2.45;;;13.90;99.90;;;;;;5094221;28;20043;-80
2024/02/15 10:59:37;;;;;;;7.43;3.10;;;13.90;99.90;;;;;;5093878;28;20112;-79
2024/02/15 11:02:29;;;;;;;3.78;1.95;;;13.90;99.90;;;;;;5092954;28;20065;-80
2024/02/15 11:05:03;;;;;;;7.47;2.40;;;13.90;99.90;;;;;;5102169;28;20024;-80
2024/02/15 11:07:30;;;;;;;11.57;3.50;;;14.00;99.90;;;;;;5099499;28;20054;-80
2024/02/15 11:09:57;;;;;;;6.68;2.47;;;13.90;99.90;;;;;;5109130;28;20117;-82
2024/02/15 11:12:26;;;;;;;6.05;2.80;;;14.00;99.90;;;;;;5099601;27;20020;-81
2024/02/15 11:14:53;;;;;;;9.23;2.90;;;14.00;99.90;;;;;;5096695;28;20024;-86
2024/02/15 11:17:39;;;;;;;8.13;2.88;;;14.10;99.90;;;;;;5092508;28;20063;-84
2024/02/15 11:20:11;;;;;;;8.82;3.30;;;14.10;99.90;;;;;;5092043;28;20475;-85
2024/02/15 11:22:38;;;;;;;10.02;2.85;;;14.10;99.90;;;;;;5092414;28;20032;-81
2024/02/15 11:25:08;;;;;;;12.30;2.42;;;14.20;99.90;;;;;;5093788;28;20282;-87
2024/02/15 11:27:40;;;;;;;10.23;2.90;;;14.20;99.90;;;;;;5091216;28;20032;-81
2024/02/15 11:30:09;;;;;;;4.45;2.25;;;14.30;99.90;;;;;;5080501;28;20051;-83
2024/02/15 11:32:47;;;;;;;7.60;2.83;;;14.40;99.90;;;;;;5080519;28;20036;-83
2024/02/15 11:35:16;;;;;;;6.95;2.45;;;14.50;99.90;;;;;;5083374;28;20028;-82
2024/02/15 11:38:09;;;;;;;11.40;4.03;;;14.60;99.90;;;;;;5091211;28;20358;-81
2024/02/15 11:40:41;;;;;;;5.95;2.22;;;14.70;99.90;;;;;;5085724;28;20407;-84
2024/02/15 11:43:08;;;;;;;5.72;2.55;;;14.80;99.90;;;;;;5096240;28;20094;-83
2024/02/15 11:45:40;;;;;;;6.70;3.00;;;14.90;99.90;;;;;;5094614;28;20096;-82
2024/02/15 11:48:12;;;;;;;9.25;2.50;;;15.00;99.90;;;;;;5109196;28;20030;-85
2024/02/15 11:50:42;;;;;;;8.23;2.97;;;15.00;99.90;;;;;;5113989;28;20031;-85
2024/02/15 11:53:11;;;;;;;5.13;1.95;;;15.10;99.90;;;;;;5093346;28;20028;-85
2024/02/15 11:55:38;;;;;;;6.45;2.30;;;15.20;99.90;;;;;;5095468;28;20036;-81
2024/02/15 11:58:12;;;;;;;9.35;3.00;;;15.30;99.90;;;;;;5093665;28;20028;-85
2024/02/15 12:19:57;;;;;;;6.35;1.85;;;15.30;99.90;;;;;;5093131;28;20047;-85
2024/02/15 12:22:33;;;;;;;6.32;1.75;;;15.40;99.90;;;;;;5103519;28;20028;-87
2024/02/15 12:25:00;;;;;;;8.35;2.72;;;15.50;99.90;;;;;;5112486;28;20035;-85
2024/02/15 12:27:27;;;;;;;7.40;1.58;;;15.70;99.90;;;;;;5102528;28;20020;-85
2024/02/15 12:29:57;;;;;;;5.43;1.83;;;15.80;99.90;;;;;;5091919;28;20417;-85
2024/02/15 12:32:25;;;;;;;5.93;2.03;;;15.90;99.90;;;;;;5094073;28;20066;-86
2024/02/15 12:34:52;;;;;;;10.45;2.65;;;16.00;99.90;;;;;;5092845;28;20087;-85
2024/02/15 12:37:23;;;;;;;7.80;2.58;;;16.00;99.90;;;;;;5092629;28;20028;-85
2024/02/15 12:39:50;;;;;;;9.10;2.25;;;16.00;99.90;;;;;;5091373;28;20646;-86
2024/02/15 12:42:20;;;;;;;7.25;1.50;;;16.00;99.90;;;;;;5092760;28;20130;-87
2024/02/15 12:44:47;;;;;;;4.90;1.80;;;16.10;99.90;;;;;;5093291;28;20028;-85
2024/02/15 12:47:21;;;;;;;5.38;1.52;;;16.30;99.90;;;;;;5093333;28;20028;-84
2024/02/15 12:49:50;;;;;;;4.43;1.50;;;16.50;99.90;;;;;;5073647;28;20055;-84
2024/02/15 12:52:36;;;;;;;3.97;1.52;;;16.80;99.90;;;;;;5092962;28;20421;-85
2024/02/15 12:55:19;;;;;;;7.20;1.95;;;16.80;99.90;;;;;;5093074;28;20412;-87
2024/02/15 12:57:51;;;;;;;6.90;1.90;;;16.70;99.90;;;;;;5092865;28;20077;-86
2024/02/15 13:00:35;;;;;;;5.78;1.48;;;16.70;99.90;;;;;;5094582;28;20044;-85
2024/02/15 13:03:08;;;;;;;5.20;1.70;;;16.60;99.90;;;;;;5092376;28;20058;-84
2024/02/15 13:05:36;;;;;;;7.53;1.50;;;16.40;99.90;;;;;;5092602;28;20262;-83
2024/02/15 13:08:03;;;;;;;9.88;1.70;;;16.30;99.90;;;;;;5090670;28;20043;-84
2024/02/15 13:10:29;;;;;;;5.55;1.48;;;16.20;99.90;;;;;;5101138;28;20023;-84
2024/02/15 13:12:56;;;;;;;5.50;1.73;;;16.10;99.90;;;;;;5111181;28;20031;-84
2024/02/15 13:15:27;;;;;;;5.97;1.60;;;16.10;99.90;;;;;;5101408;28;20472;-81
2024/02/15 13:17:53;;;;;;;7.65;2.42;;;16.10;99.90;;;;;;5086802;28;20078;-83
2024/02/15 13:20:35;;;;;;;4.78;1.50;;;16.20;99.90;;;;;;5081366;28;20044;-84